createdAt,value
2019-01-21T00:00:17.574Z,-0.30
2019-01-21T00:02:46.025Z,-0.30
2019-01-21T00:05:14.818Z,-0.40
2019-01-21T00:07:43.270Z,-0.40
2019-01-21T00:10:12.082Z,-0.50
2019-01-21T00:12:40.854Z,-0.50
2019-01-21T00:15:09.759Z,-0.50
2019-01-21T00:17:38.438Z,-0.50
2019-01-21T00:20:07.997Z,-0.50
2019-01-21T00:22:36.731Z,-0.50
2019-01-21T00:25:07.023Z,-0.60
2019-01-21T00:27:35.726Z,-0.60
2019-01-21T00:30:06.776Z,-0.60
2019-01-21T00:32:35.465Z,-0.60
2019-01-21T00:35:05.726Z,-0.70
2019-01-21T00:37:34.145Z,-0.70
2019-01-21T00:40:06.011Z,-0.70
2019-01-21T00:42:34.709Z,-0.80
2019-01-21T00:45:03.216Z,-0.80
2019-01-21T00:47:31.621Z,-0.80
2019-01-21T00:50:00.363Z,-0.80
2019-01-21T00:52:29.034Z,-0.80
2019-01-21T00:54:57.551Z,-0.80
2019-01-21T00:57:25.960Z,-0.80
2019-01-21T00:59:54.661Z,-0.80
2019-01-21T01:02:23.491Z,-0.80
2019-01-21T01:04:52.274Z,-0.80
2019-01-21T01:07:20.781Z,-0.80
2019-01-21T01:09:49.242Z,-0.80
2019-01-21T01:12:17.690Z,-0.80
2019-01-21T01:14:46.382Z,-0.80
2019-01-21T01:17:15.076Z,-0.80
2019-01-21T01:19:43.487Z,-0.90
2019-01-21T01:22:11.922Z,-0.90
2019-01-21T01:24:40.623Z,-0.90
2019-01-21T01:27:09.410Z,-0.90
2019-01-21T01:29:37.822Z,-0.90
2019-01-21T01:32:06.240Z,-0.90
2019-01-21T01:34:34.946Z,-0.90
2019-01-21T01:37:05.135Z,-0.90
2019-01-21T01:39:33.846Z,-1.00
2019-01-21T01:42:02.271Z,-1.00
2019-01-21T01:44:31.423Z,-1.00
2019-01-21T01:46:59.839Z,-1.00
2019-01-21T01:49:28.695Z,-1.10
2019-01-21T01:51:57.385Z,-1.10
2019-01-21T01:54:25.828Z,-1.10
2019-01-21T01:56:54.854Z,-1.10
2019-01-21T01:59:23.547Z,-1.10
2019-01-21T02:01:52.319Z,-1.10
2019-01-21T02:04:20.738Z,-1.10
2019-01-21T02:06:49.616Z,-1.20
2019-01-21T02:09:18.029Z,-1.10
2019-01-21T02:11:46.440Z,-1.00
2019-01-21T02:14:14.895Z,-1.00
2019-01-21T02:16:43.447Z,-1.00
2019-01-21T02:19:11.901Z,-1.00
2019-01-21T02:21:42.221Z,-1.00
2019-01-21T02:24:13.366Z,-1.00
2019-01-21T02:26:45.126Z,-1.10
2019-01-21T02:29:16.993Z,-1.00
2019-01-21T02:32:15.980Z,-1.10
2019-01-21T02:34:50.345Z,-1.20
2019-01-21T02:37:50.481Z,-1.20
2019-01-21T02:40:22.025Z,-1.20
2019-01-21T02:42:56.442Z,-1.30
2019-01-21T02:45:44.891Z,-1.30
2019-01-21T02:48:34.487Z,-1.30
2019-01-21T02:51:08.963Z,-1.40
2019-01-21T02:53:43.374Z,-1.40
2019-01-21T02:56:26.927Z,-1.50
2019-01-21T02:59:32.027Z,-1.50
2019-01-21T03:02:24.750Z,-1.50
2019-01-21T03:05:11.354Z,-1.50
2019-01-21T03:07:51.662Z,-1.60
2019-01-21T03:10:38.342Z,-1.60
2019-01-21T03:13:19.232Z,-1.70
2019-01-21T03:15:51.476Z,-1.70
2019-01-21T03:18:58.171Z,-1.70
2019-01-21T03:21:55.107Z,-1.70
2019-01-21T03:24:59.479Z,-1.70
2019-01-21T03:27:49.134Z,-1.80
2019-01-21T03:30:29.061Z,-1.80
2019-01-21T03:33:23.485Z,-1.90
2019-01-21T03:36:18.271Z,-1.90
2019-01-21T03:39:05.062Z,-1.90
2019-01-21T03:41:59.189Z,-1.90
2019-01-21T03:44:31.095Z,-1.90
2019-01-21T03:47:18.867Z,-1.90
2019-01-21T03:50:06.991Z,-1.90
2019-01-21T03:53:00.241Z,-1.90
2019-01-21T03:55:29.939Z,-1.90
2019-01-21T03:58:07.208Z,-1.90
2019-01-21T04:00:41.858Z,-1.90
2019-01-21T04:03:22.180Z,-1.90
2019-01-21T04:05:59.014Z,-1.90
2019-01-21T04:08:33.491Z,-1.90
2019-01-21T04:11:10.833Z,-1.90
2019-01-21T04:13:57.803Z,-2.00
2019-01-21T04:16:38.293Z,-2.00
2019-01-21T04:19:15.940Z,-2.10
2019-01-21T04:21:59.482Z,-2.10
2019-01-21T04:24:36.892Z,-2.20
2019-01-21T04:27:11.239Z,-2.10
2019-01-21T04:29:59.749Z,-2.20
2019-01-21T04:32:58.773Z,-2.20
2019-01-21T04:35:42.384Z,-2.20
2019-01-21T04:38:31.031Z,-2.20
2019-01-21T04:41:14.599Z,-2.20
2019-01-21T04:43:46.096Z,-2.20
2019-01-21T04:46:20.320Z,-2.20
2019-01-21T04:48:52.109Z,-2.20
2019-01-21T04:51:29.671Z,-2.20
2019-01-21T04:54:04.222Z,-2.10
2019-01-21T04:56:59.350Z,-2.10
2019-01-21T04:59:50.443Z,-2.10
2019-01-21T05:02:41.958Z,-2.20
2019-01-21T05:05:25.898Z,-2.20
2019-01-21T05:08:33.862Z,-2.20
2019-01-21T05:11:17.450Z,-2.30
2019-01-21T05:14:18.077Z,-2.30
2019-01-21T05:17:10.872Z,-2.40
2019-01-21T05:19:54.453Z,-2.40
2019-01-21T05:22:35.431Z,-2.40
2019-01-21T05:25:26.266Z,-2.50
2019-01-21T05:27:58.198Z,-2.50
2019-01-21T05:30:41.635Z,-2.50
2019-01-21T05:33:18.997Z,-2.50
2019-01-21T05:36:20.494Z,-2.50
2019-01-21T05:38:51.978Z,-2.40
2019-01-21T05:41:23.782Z,-2.40
2019-01-21T05:43:58.427Z,-2.40
2019-01-21T05:46:25.990Z,-2.40
2019-01-21T05:49:09.108Z,-2.40
2019-01-21T05:51:52.557Z,-2.30
2019-01-21T05:54:27.277Z,-2.30
2019-01-21T05:57:01.922Z,-2.30
2019-01-21T05:59:48.291Z,-2.30
2019-01-21T06:02:31.972Z,-2.30
2019-01-21T06:05:06.543Z,-2.30
2019-01-21T06:08:01.023Z,-2.30
2019-01-21T06:10:47.643Z,-2.30
2019-01-21T06:13:19.159Z,-2.30
2019-01-21T06:15:53.842Z,-2.40
2019-01-21T06:18:25.662Z,-2.40
2019-01-21T06:21:06.187Z,-2.40
2019-01-21T06:23:37.710Z,-2.40
2019-01-21T06:26:15.152Z,-2.40
2019-01-21T06:28:52.293Z,-2.40
2019-01-21T06:31:26.735Z,-2.50
2019-01-21T06:34:30.574Z,-2.50
2019-01-21T06:37:08.041Z,-2.50
2019-01-21T06:39:42.414Z,-2.50
2019-01-21T06:42:17.051Z,-2.50
2019-01-21T06:45:04.202Z,-2.50
2019-01-21T06:47:38.705Z,-2.50
2019-01-21T06:50:13.636Z,-2.50
2019-01-21T06:53:03.358Z,-2.50
2019-01-21T06:55:51.462Z,-2.60
2019-01-21T06:58:31.839Z,-2.60
2019-01-21T07:01:06.321Z,-2.70
2019-01-21T07:04:00.196Z,-2.70
2019-01-21T07:06:32.015Z,-2.70
2019-01-21T07:09:27.352Z,-2.70
2019-01-21T07:12:17.104Z,-2.80
2019-01-21T07:14:51.787Z,-2.80
2019-01-21T07:17:35.540Z,-2.70
2019-01-21T07:20:16.465Z,-2.70
2019-01-21T07:23:00.087Z,-2.70
2019-01-21T07:25:40.964Z,-2.70
2019-01-21T07:28:15.747Z,-2.70
2019-01-21T07:31:02.239Z,-2.80
2019-01-21T07:33:48.869Z,-2.80
2019-01-21T07:36:35.613Z,-2.80
2019-01-21T07:39:15.450Z,-2.80
2019-01-21T07:41:58.786Z,-2.80
2019-01-21T07:44:48.250Z,-2.90
2019-01-21T07:47:31.387Z,-2.80
2019-01-21T07:50:21.149Z,-2.90
2019-01-21T07:53:12.155Z,-2.90
2019-01-21T07:56:00.510Z,-2.90
2019-01-21T07:59:00.797Z,-2.90
2019-01-21T08:01:32.615Z,-2.90
2019-01-21T08:04:19.216Z,-2.80
2019-01-21T08:06:53.823Z,-2.80
2019-01-21T08:09:37.234Z,-2.80
2019-01-21T08:12:11.569Z,-2.80
2019-01-21T08:14:52.000Z,-2.80
2019-01-21T08:17:43.547Z,-2.80
2019-01-21T08:20:26.968Z,-2.80
2019-01-21T08:23:13.482Z,-2.70
2019-01-21T08:25:51.111Z,-2.70
2019-01-21T08:28:31.566Z,-2.70
2019-01-21T08:31:09.645Z,-2.70
2019-01-21T08:34:13.687Z,-2.70
2019-01-21T08:36:53.918Z,-2.70
2019-01-21T08:39:25.407Z,-2.60
2019-01-21T08:42:03.256Z,-2.60
2019-01-21T08:44:51.850Z,-2.60
2019-01-21T08:47:35.463Z,-2.50
2019-01-21T08:50:22.182Z,-2.50
2019-01-21T08:53:05.792Z,-2.50
2019-01-21T08:55:37.669Z,-2.40
2019-01-21T08:58:28.953Z,-2.40
2019-01-21T09:01:18.832Z,-2.30
2019-01-21T09:04:07.313Z,-2.20
2019-01-21T09:06:38.901Z,-2.20
2019-01-21T09:09:10.394Z,-2.10
2019-01-21T09:11:42.287Z,-2.10
2019-01-21T09:14:14.020Z,-2.00
2019-01-21T09:17:02.230Z,-2.00
2019-01-21T09:19:52.077Z,-1.90
2019-01-21T09:22:32.385Z,-1.90
2019-01-21T09:25:09.638Z,-1.90
2019-01-21T09:27:44.026Z,-1.90
2019-01-21T09:30:24.755Z,-1.90
2019-01-21T09:33:02.514Z,-1.90
2019-01-21T09:36:01.235Z,-1.80
2019-01-21T09:38:44.451Z,-1.70
2019-01-21T09:41:22.107Z,-1.60
2019-01-21T09:43:53.849Z,-1.50
2019-01-21T09:46:28.676Z,-1.40
2019-01-21T09:48:56.332Z,-1.50
2019-01-21T09:51:27.086Z,-1.40
2019-01-21T09:53:56.520Z,-1.30
2019-01-21T09:56:26.291Z,-1.10
2019-01-21T09:58:56.275Z,-1.00
2019-01-21T10:01:26.359Z,-0.90
2019-01-21T10:03:55.713Z,-0.80
2019-01-21T10:06:26.772Z,-0.60
2019-01-21T10:09:19.843Z,-0.50
2019-01-21T10:11:59.690Z,-0.40
2019-01-21T10:14:34.192Z,-0.30
2019-01-21T10:17:17.577Z,-0.10
2019-01-21T10:19:55.326Z,0.00
2019-01-21T10:22:30.449Z,0.10
2019-01-21T10:25:04.565Z,0.30
2019-01-21T10:28:06.028Z,0.40
2019-01-21T10:30:46.510Z,0.50
2019-01-21T10:33:34.095Z,0.60
2019-01-21T10:36:11.551Z,0.70
2019-01-21T10:39:07.530Z,0.80
2019-01-21T10:41:48.192Z,1.00
2019-01-21T10:44:23.123Z,1.20
2019-01-21T10:47:00.818Z,1.40
2019-01-21T10:49:57.361Z,1.50
2019-01-21T10:52:38.534Z,1.70
2019-01-21T10:55:16.106Z,1.80
2019-01-21T10:57:47.728Z,1.90
2019-01-21T11:00:20.170Z,2.00
2019-01-21T11:03:02.606Z,2.10
2019-01-21T11:05:55.915Z,2.30
2019-01-21T11:08:27.446Z,2.30
2019-01-21T11:11:01.807Z,2.40
2019-01-21T11:13:51.128Z,2.50
2019-01-21T11:16:37.801Z,2.60
2019-01-21T11:19:22.153Z,2.70
2019-01-21T11:21:53.739Z,2.80
2019-01-21T11:24:43.557Z,2.90
2019-01-21T11:27:20.876Z,3.00
2019-01-21T11:30:01.389Z,3.10
2019-01-21T11:32:42.177Z,3.10
2019-01-21T11:35:28.980Z,3.20
2019-01-21T11:38:20.038Z,3.20
2019-01-21T11:41:22.169Z,3.40
2019-01-21T11:44:11.883Z,3.60
2019-01-21T11:46:55.783Z,3.90
2019-01-21T11:49:45.963Z,3.90
2019-01-21T11:52:23.461Z,4.10
2019-01-21T11:55:13.994Z,4.30
2019-01-21T11:57:54.212Z,4.50
2019-01-21T12:00:34.478Z,4.70
2019-01-21T12:03:15.592Z,4.90
2019-01-21T12:05:47.321Z,5.10
2019-01-21T12:08:35.712Z,5.30
2019-01-21T12:11:13.149Z,5.50
2019-01-21T12:14:09.163Z,5.80
2019-01-21T12:17:03.169Z,5.90
2019-01-21T12:19:43.791Z,5.90
2019-01-21T12:22:36.417Z,5.90
2019-01-21T12:25:28.977Z,6.10
2019-01-21T12:28:21.538Z,6.30
2019-01-21T12:31:02.193Z,6.60
2019-01-21T12:33:45.859Z,6.80
2019-01-21T12:36:17.717Z,6.80
2019-01-21T12:38:49.458Z,6.90
2019-01-21T12:41:29.688Z,7.20
2019-01-21T12:44:04.006Z,7.20
2019-01-21T12:46:39.505Z,7.10
2019-01-21T12:49:26.353Z,7.10
2019-01-21T12:51:57.882Z,7.20
2019-01-21T12:54:49.390Z,7.30
2019-01-21T12:57:47.843Z,7.50
2019-01-21T13:00:37.200Z,7.70
2019-01-21T13:03:31.594Z,7.80
2019-01-21T13:06:14.557Z,7.90
2019-01-21T13:09:11.949Z,7.90
2019-01-21T13:11:52.732Z,7.90
2019-01-21T13:14:30.252Z,7.90
2019-01-21T13:17:02.197Z,7.90
2019-01-21T13:19:50.460Z,8.00
2019-01-21T13:22:39.502Z,8.00
2019-01-21T13:25:38.447Z,8.10
2019-01-21T13:28:21.757Z,8.30
2019-01-21T13:30:53.594Z,8.50
2019-01-21T13:33:44.842Z,8.50
2019-01-21T13:36:16.579Z,8.30
2019-01-21T13:38:54.195Z,8.30
2019-01-21T13:41:31.559Z,8.30
2019-01-21T13:44:09.317Z,8.40
2019-01-21T13:47:07.758Z,8.40
2019-01-21T13:49:45.298Z,8.60
2019-01-21T13:52:50.131Z,8.70
2019-01-21T13:55:33.250Z,8.70
2019-01-21T13:58:32.555Z,8.70
2019-01-21T14:01:12.941Z,8.70
2019-01-21T14:03:47.024Z,8.60
2019-01-21T14:06:24.625Z,8.50
2019-01-21T14:09:16.850Z,8.50
2019-01-21T14:12:03.163Z,8.50
2019-01-21T14:14:37.789Z,8.40
2019-01-21T14:17:21.190Z,8.30
2019-01-21T14:19:53.014Z,8.20
2019-01-21T14:22:33.643Z,8.20
2019-01-21T14:25:13.785Z,8.00
2019-01-21T14:28:03.674Z,7.80
2019-01-21T14:30:50.492Z,7.70
2019-01-21T14:33:33.270Z,7.60
2019-01-21T14:36:08.122Z,7.60
2019-01-21T14:38:42.896Z,7.60
2019-01-21T14:41:17.329Z,7.60
2019-01-21T14:44:20.647Z,7.50
2019-01-21T14:47:09.226Z,7.50
2019-01-21T14:49:56.032Z,7.40
2019-01-21T14:52:30.492Z,7.40
2019-01-21T14:55:02.340Z,7.40
2019-01-21T14:57:43.227Z,7.30
2019-01-21T15:00:29.209Z,7.30
2019-01-21T15:03:25.351Z,7.30
2019-01-21T15:06:05.894Z,7.30
2019-01-21T15:08:37.739Z,7.40
2019-01-21T15:11:11.980Z,7.40
2019-01-21T15:13:46.580Z,7.50
2019-01-21T15:16:30.535Z,7.60
2019-01-21T15:19:10.818Z,7.60
2019-01-21T15:22:01.144Z,7.60
2019-01-21T15:25:01.461Z,7.60
2019-01-21T15:27:48.379Z,7.50
2019-01-21T15:30:44.287Z,7.40
2019-01-21T15:33:27.873Z,7.20
2019-01-21T15:36:22.255Z,7.10
2019-01-21T15:38:53.808Z,6.90
2019-01-21T15:41:37.947Z,6.70
2019-01-21T15:44:09.539Z,6.50
2019-01-21T15:46:50.159Z,6.30
2019-01-21T15:49:39.947Z,6.20
2019-01-21T15:52:14.035Z,6.00
2019-01-21T15:54:48.317Z,5.80
2019-01-21T15:57:31.645Z,5.70
2019-01-21T16:00:24.452Z,5.50
2019-01-21T16:02:55.950Z,5.30
2019-01-21T16:05:53.394Z,5.20
2019-01-21T16:08:25.427Z,5.10
2019-01-21T16:10:57.187Z,5.00
2019-01-21T16:13:34.973Z,4.90
2019-01-21T16:16:21.795Z,4.80
2019-01-21T16:18:56.139Z,4.70
2019-01-21T16:21:39.339Z,4.70
2019-01-21T16:24:13.974Z,4.60
2019-01-21T16:26:45.454Z,4.50
2019-01-21T16:29:17.264Z,4.50
2019-01-21T16:31:47.510Z,4.40
2019-01-21T16:34:40.402Z,4.30
2019-01-21T16:37:24.562Z,4.30
2019-01-21T16:40:14.602Z,4.20
2019-01-21T16:42:43.078Z,4.10
2019-01-21T16:45:11.960Z,4.00
2019-01-21T16:47:40.747Z,4.00
2019-01-21T16:50:09.674Z,3.90
2019-01-21T16:52:38.244Z,3.90
2019-01-21T16:55:08.476Z,3.80
2019-01-21T16:57:37.049Z,3.70
2019-01-21T17:00:11.508Z,3.70
2019-01-21T17:02:40.228Z,3.60
2019-01-21T17:05:11.855Z,3.60
2019-01-21T17:07:40.506Z,3.50
2019-01-21T17:10:12.795Z,3.50
2019-01-21T17:12:41.232Z,3.40
2019-01-21T17:15:12.394Z,3.40
2019-01-21T17:17:41.119Z,3.40
2019-01-21T17:20:15.075Z,3.30
2019-01-21T17:22:43.830Z,3.20
2019-01-21T17:25:12.733Z,3.20
2019-01-21T17:27:41.331Z,3.20
2019-01-21T17:30:15.351Z,3.20
2019-01-21T17:32:44.313Z,3.20
2019-01-21T17:35:14.407Z,3.10
2019-01-21T17:37:42.924Z,3.10
2019-01-21T17:40:14.964Z,3.10
2019-01-21T17:42:43.659Z,3.10
2019-01-21T17:45:15.102Z,3.00
2019-01-21T17:47:43.691Z,3.00
2019-01-21T17:50:14.437Z,2.90
2019-01-21T17:52:42.875Z,2.90
2019-01-21T17:55:12.255Z,2.80
2019-01-21T17:57:41.127Z,2.80
2019-01-21T18:00:13.027Z,2.70
2019-01-21T18:02:41.460Z,2.70
2019-01-21T18:05:10.006Z,2.60
2019-01-21T18:07:38.456Z,2.60
2019-01-21T18:10:10.272Z,2.60
2019-01-21T18:12:39.256Z,2.50
2019-01-21T18:15:10.646Z,2.40
2019-01-21T18:17:39.383Z,2.40
2019-01-21T18:20:14.363Z,2.40
2019-01-21T18:22:43.001Z,2.30
2019-01-21T18:25:12.496Z,2.30
2019-01-21T18:27:41.134Z,2.30
2019-01-21T18:30:12.854Z,2.20
2019-01-21T18:32:41.530Z,2.20
2019-01-21T18:35:11.851Z,2.20
2019-01-21T18:37:40.746Z,2.20
2019-01-21T18:40:12.913Z,2.20
2019-01-21T18:42:41.446Z,2.20
2019-01-21T18:45:13.370Z,2.20
2019-01-21T18:47:41.773Z,2.10
2019-01-21T18:50:11.562Z,2.10
2019-01-21T18:52:40.331Z,2.10
2019-01-21T18:55:09.905Z,2.20
2019-01-21T18:57:38.727Z,2.20
2019-01-21T19:00:19.070Z,2.10
2019-01-21T19:02:47.615Z,2.00
2019-01-21T19:05:16.735Z,2.00
2019-01-21T19:07:45.555Z,2.00
2019-01-21T19:10:16.414Z,2.00
2019-01-21T19:12:44.898Z,2.00
2019-01-21T19:15:18.989Z,2.00
2019-01-21T19:17:48.078Z,1.90
2019-01-21T19:20:16.908Z,1.90
2019-01-21T19:22:45.362Z,1.90
2019-01-21T19:25:14.251Z,1.90
2019-01-21T19:27:43.051Z,2.00
2019-01-21T19:30:14.850Z,2.00
2019-01-21T19:32:43.670Z,2.00
2019-01-21T19:35:15.003Z,2.00
2019-01-21T19:37:43.452Z,2.00
2019-01-21T19:40:18.026Z,2.00
2019-01-21T19:42:46.925Z,2.00
2019-01-21T19:45:16.039Z,2.10
2019-01-21T19:47:44.624Z,2.10
2019-01-21T19:50:18.239Z,2.10
2019-01-21T19:52:47.090Z,2.10
2019-01-21T19:55:19.247Z,2.10
2019-01-21T19:57:47.873Z,2.10
2019-01-21T20:00:19.448Z,2.00
2019-01-21T20:02:48.278Z,2.00
2019-01-21T20:05:17.570Z,2.00
2019-01-21T20:07:46.352Z,2.00
2019-01-21T20:10:22.960Z,2.00
2019-01-21T20:12:52.038Z,2.00
2019-01-21T20:15:20.528Z,2.00
2019-01-21T20:17:49.389Z,2.00
2019-01-21T20:20:23.677Z,2.00
2019-01-21T20:22:57.425Z,2.00
2019-01-21T20:25:22.530Z,2.00
2019-01-21T20:27:50.971Z,2.10
2019-01-21T20:30:24.369Z,2.00
2019-01-21T20:32:55.675Z,2.00
2019-01-21T20:35:24.621Z,2.00
2019-01-21T20:37:53.580Z,2.00
2019-01-21T20:40:27.609Z,2.00
2019-01-21T20:42:56.531Z,2.00
2019-01-21T20:45:25.305Z,2.00
2019-01-21T20:47:53.754Z,2.00
2019-01-21T20:50:32.620Z,2.00
2019-01-21T20:53:01.056Z,2.00
2019-01-21T20:55:30.215Z,2.00
2019-01-21T20:57:58.984Z,2.00
2019-01-21T21:00:29.914Z,1.90
2019-01-21T21:03:02.184Z,2.00
2019-01-21T21:05:30.658Z,1.90
2019-01-21T21:07:59.109Z,1.90
2019-01-21T21:10:27.572Z,1.90
2019-01-21T21:12:56.021Z,1.80
2019-01-21T21:15:27.181Z,1.70
2019-01-21T21:17:55.621Z,1.70
2019-01-21T21:20:24.105Z,1.60
2019-01-21T21:22:52.891Z,1.50
2019-01-21T21:25:22.678Z,1.40
2019-01-21T21:27:51.584Z,1.40
2019-01-21T21:30:23.349Z,1.30
2019-01-21T21:32:52.240Z,1.30
2019-01-21T21:35:21.543Z,1.20
2019-01-21T21:37:49.986Z,1.20
2019-01-21T21:40:20.759Z,1.20
2019-01-21T21:42:49.370Z,1.20
2019-01-21T21:45:19.482Z,1.20
2019-01-21T21:47:48.239Z,1.30
2019-01-21T21:50:25.314Z,1.30
2019-01-21T21:52:53.959Z,1.30
2019-01-21T21:55:22.783Z,1.30
2019-01-21T21:57:51.319Z,1.30
2019-01-21T22:00:22.851Z,1.30
2019-01-21T22:02:51.335Z,1.30
2019-01-21T22:05:20.403Z,1.30
2019-01-21T22:07:48.881Z,1.40
2019-01-21T22:10:20.514Z,1.30
2019-01-21T22:12:50.343Z,1.30
2019-01-21T22:15:22.287Z,1.30
2019-01-21T22:17:50.896Z,1.30
2019-01-21T22:20:21.451Z,1.40
2019-01-21T22:22:49.997Z,1.30
2019-01-21T22:25:18.986Z,1.30
2019-01-21T22:27:47.503Z,1.30
2019-01-21T22:30:18.305Z,1.30
2019-01-21T22:32:47.196Z,1.30
2019-01-21T22:35:15.915Z,1.30
2019-01-21T22:37:44.923Z,1.20
2019-01-21T22:40:16.041Z,1.20
2019-01-21T22:42:44.917Z,1.20
2019-01-21T22:45:15.229Z,1.20
2019-01-21T22:47:43.813Z,1.20
2019-01-21T22:50:14.363Z,1.20
2019-01-21T22:52:44.377Z,1.20
2019-01-21T22:55:15.052Z,1.20
2019-01-21T22:57:43.869Z,1.30
2019-01-21T23:00:15.647Z,1.20
2019-01-21T23:02:44.509Z,1.20
2019-01-21T23:05:13.419Z,1.20
2019-01-21T23:07:41.898Z,1.20
2019-01-21T23:10:10.405Z,1.10
2019-01-21T23:12:39.078Z,1.10
2019-01-21T23:15:08.970Z,1.10
2019-01-21T23:17:37.683Z,1.00
2019-01-21T23:20:09.672Z,1.00
2019-01-21T23:22:38.149Z,1.00
2019-01-21T23:25:07.713Z,0.90
2019-01-21T23:27:36.119Z,1.00
2019-01-21T23:30:07.647Z,0.90
2019-01-21T23:32:36.066Z,0.90
2019-01-21T23:35:05.704Z,0.90
2019-01-21T23:37:34.519Z,1.00
2019-01-21T23:40:02.966Z,1.00
2019-01-21T23:42:31.513Z,1.00
2019-01-21T23:45:00.276Z,1.00
2019-01-21T23:47:28.686Z,1.00
2019-01-21T23:49:57.554Z,1.00
2019-01-21T23:52:27.497Z,1.00
2019-01-21T23:54:56.383Z,1.00
2019-01-21T23:57:25.134Z,1.00
2019-01-21T23:59:53.812Z,1.00
